sensor_id;sensor_type;location;lat;lon;timestamp;pressure;altitude;pressure_sealevel;temperature;humidity
2188;BME280;1100;52.014;8.540;2024-03-23T00:55:12;99445.16;;;5.74;100.00
2188;BME280;1100;52.014;8.540;2024-03-23T00:57:37;99440.03;;;5.77;100.00
2188;BME280;1100;52.014;8.540;2024-03-23T01:00:03;99444.03;;;5.72;100.00
2188;BME280;1100;52.014;8.540;2024-03-23T01:02:30;99433.06;;;5.68;100.00
2188;BME280;1100;52.014;8.540;2024-03-23T01:04:56;99435.78;;;5.72;100.00
2188;BME280;1100;52.014;8.540;2024-03-23T01:07:21;99433.91;;;5.65;100.00
2188;BME280;1100;52.014;8.540;2024-03-23T01:09:46;99435.06;;;5.68;100.00
2188;BME280;1100;52.014;8.540;2024-03-23T01:12:12;99429.13;;;5.69;100.00
2188;BME280;1100;52.014;8.540;2024-03-23T01:14:37;99425.94;;;5.71;100.00
2188;BME280;1100;52.014;8.540;2024-03-23T01:17:02;99424.88;;;5.65;100.00
2188;BME280;1100;52.014;8.540;2024-03-23T01:19:28;99421.34;;;5.64;100.00
2188;BME280;1100;52.014;8.540;2024-03-23T01:21:53;99415.03;;;5.64;100.00
2188;BME280;1100;52.014;8.540;2024-03-23T01:24:18;99413.47;;;5.63;100.00
2188;BME280;1100;52.014;8.540;2024-03-23T01:26:44;99412.78;;;5.58;100.00
2188;BME280;1100;52.014;8.540;2024-03-23T01:29:09;99410.03;;;5.58;100.00
2188;BME280;1100;52.014;8.540;2024-03-23T01:31:34;99393.91;;;5.57;100.00
2188;BME280;1100;52.014;8.540;2024-03-23T01:33:59;99397.84;;;5.56;100.00
2188;BME280;1100;52.014;8.540;2024-03-23T01:36:25;99400.53;;;5.59;100.00
2188;BME280;1100;52.014;8.540;2024-03-23T01:38:51;99382.44;;;5.58;100.00
2188;BME280;1100;52.014;8.540;2024-03-23T01:41:17;99390.34;;;5.56;100.00
2188;BME280;1100;52.014;8.540;2024-03-23T01:43:43;99395.03;;;5.59;100.00
2188;BME280;1100;52.014;8.540;2024-03-23T01:46:08;99385.06;;;5.66;100.00
2188;BME280;1100;52.014;8.540;2024-03-23T01:48:33;99389.47;;;5.63;100.00
2188;BME280;1100;52.014;8.540;2024-03-23T01:50:59;99378.84;;;5.61;100.00
2188;BME280;1100;52.014;8.540;2024-03-23T01:53:24;99379.97;;;5.64;100.00
2188;BME280;1100;52.014;8.540;2024-03-23T01:55:50;99371.91;;;5.73;100.00
2188;BME280;1100;52.014;8.540;2024-03-23T01:58:16;99368.03;;;5.71;100.00
2188;BME280;1100;52.014;8.540;2024-03-23T02:00:41;99365.19;;;5.74;100.00
2188;BME280;1100;52.014;8.540;2024-03-23T02:03:25;99365.97;;;5.75;100.00
2188;BME280;1100;52.014;8.540;2024-03-23T02:05:52;99368.69;;;5.79;100.00
2188;BME280;1100;52.014;8.540;2024-03-23T02:08:20;99364.34;;;5.78;100.00
2188;BME280;1100;52.014;8.540;2024-03-23T02:10:46;99349.50;;;5.71;100.00
2188;BME280;1100;52.014;8.540;2024-03-23T02:13:12;99351.06;;;5.72;100.00
2188;BME280;1100;52.014;8.540;2024-03-23T02:15:39;99344.75;;;5.72;100.00
2188;BME280;1100;52.014;8.540;2024-03-23T02:18:04;99347.88;;;5.74;100.00
2188;BME280;1100;52.014;8.540;2024-03-23T02:20:29;99341.59;;;5.73;100.00
2188;BME280;1100;52.014;8.540;2024-03-23T02:22:55;99341.59;;;5.73;100.00
2188;BME280;1100;52.014;8.540;2024-03-23T02:25:20;99346.31;;;5.73;100.00
2188;BME280;1100;52.014;8.540;2024-03-23T02:27:45;99346.31;;;5.73;100.00
2188;BME280;1100;52.014;8.540;2024-03-23T02:30:11;99344.34;;;5.73;100.00
2188;BME280;1100;52.014;8.540;2024-03-23T02:32:36;99342.44;;;5.70;100.00
2188;BME280;1100;52.014;8.540;2024-03-23T02:35:01;99331.75;;;5.72;100.00
2188;BME280;1100;52.014;8.540;2024-03-23T02:37:27;99335.38;;;5.69;100.00
2188;BME280;1100;52.014;8.540;2024-03-23T02:39:52;99333.53;;;5.63;100.00
2188;BME280;1100;52.014;8.540;2024-03-23T02:42:17;99328.44;;;5.61;100.00
2188;BME280;1100;52.014;8.540;2024-03-23T02:44:44;99321.44;;;5.56;100.00
2188;BME280;1100;52.014;8.540;2024-03-23T02:47:09;99325.41;;;5.55;100.00
2188;BME280;1100;52.014;8.540;2024-03-23T02:49:35;99323.50;;;5.52;100.00
2188;BME280;1100;52.014;8.540;2024-03-23T02:52:00;99319.16;;;5.51;100.00
2188;BME280;1100;52.014;8.540;2024-03-23T02:54:25;99324.13;;;5.40;100.00
2188;BME280;1100;52.014;8.540;2024-03-23T02:56:51;99317.03;;;5.39;100.00
2188;BME280;1100;52.014;8.540;2024-03-23T02:59:16;99310.81;;;5.34;100.00
2188;BME280;1100;52.014;8.540;2024-03-23T03:01:41;99316.31;;;5.34;100.00
2188;BME280;1100;52.014;8.540;2024-03-23T03:04:07;99314.78;;;5.33;100.00
2188;BME280;1100;52.014;8.540;2024-03-23T03:06:32;99318.59;;;5.40;100.00
2188;BME280;1100;52.014;8.540;2024-03-23T03:08:57;99309.47;;;5.43;100.00
2188;BME280;1100;52.014;8.540;2024-03-23T03:11:23;99298.94;;;5.38;100.00
2188;BME280;1100;52.014;8.540;2024-03-23T03:13:48;99295.06;;;5.35;100.00
2188;BME280;1100;52.014;8.540;2024-03-23T03:16:13;99299.78;;;5.34;100.00
2188;BME280;1100;52.014;8.540;2024-03-23T03:18:39;99294.38;;;5.27;100.00
2188;BME280;1100;52.014;8.540;2024-03-23T03:21:08;99305.50;;;5.23;100.00
2188;BME280;1100;52.014;8.540;2024-03-23T03:23:37;99298.34;;;5.26;100.00
2188;BME280;1100;52.014;8.540;2024-03-23T03:26:02;99296.81;;;5.25;100.00
2188;BME280;1100;52.014;8.540;2024-03-23T03:28:28;99293.25;;;5.24;100.00
2188;BME280;1100;52.014;8.540;2024-03-23T03:30:56;99286.22;;;5.23;100.00
2188;BME280;1100;52.014;8.540;2024-03-23T03:33:21;99294.81;;;5.26;100.00
2188;BME280;1100;52.014;8.540;2024-03-23T03:35:46;99295.22;;;5.24;100.00
2188;BME280;1100;52.014;8.540;2024-03-23T03:38:12;99293.00;;;5.19;100.00
2188;BME280;1100;52.014;8.540;2024-03-23T03:40:37;99283.50;;;5.20;100.00
2188;BME280;1100;52.014;8.540;2024-03-23T03:43:03;99277.56;;;5.21;100.00
2188;BME280;1100;52.014;8.540;2024-03-23T03:45:28;99278.38;;;5.22;100.00
2188;BME280;1100;52.014;8.540;2024-03-23T03:47:53;99280.34;;;5.21;100.00
2188;BME280;1100;52.014;8.540;2024-03-23T03:50:19;99281.19;;;5.18;100.00
2188;BME280;1100;52.014;8.540;2024-03-23T03:52:45;99281.22;;;5.15;100.00
2188;BME280;1100;52.014;8.540;2024-03-23T03:55:13;99286.75;;;5.15;100.00
2188;BME280;1100;52.014;8.540;2024-03-23T03:57:39;99279.31;;;5.11;100.00
2188;BME280;1100;52.014;8.540;2024-03-23T04:00:05;99277.84;;;5.07;100.00
2188;BME280;1100;52.014;8.540;2024-03-23T04:02:30;99274.38;;;5.03;100.00
2188;BME280;1100;52.014;8.540;2024-03-23T04:04:55;99277.53;;;5.01;100.00
2188;BME280;1100;52.014;8.540;2024-03-23T04:07:21;99277.31;;;4.92;100.00
2188;BME280;1100;52.014;8.540;2024-03-23T04:09:48;99278.38;;;4.98;100.00
2188;BME280;1100;52.014;8.540;2024-03-23T04:12:13;99278.38;;;4.98;100.00
2188;BME280;1100;52.014;8.540;2024-03-23T04:14:39;99278.81;;;4.96;100.00
2188;BME280;1100;52.014;8.540;2024-03-23T04:17:07;99276.06;;;4.96;100.00
2188;BME280;1100;52.014;8.540;2024-03-23T04:19:32;99284.69;;;4.98;100.00
2188;BME280;1100;52.014;8.540;2024-03-23T04:21:57;99286.59;;;5.02;100.00
2188;BME280;1100;52.014;8.540;2024-03-23T04:24:23;99294.06;;;5.01;100.00
2188;BME280;1100;52.014;8.540;2024-03-23T04:26:50;99291.75;;;4.99;100.00
2188;BME280;1100;52.014;8.540;2024-03-23T04:29:15;99279.22;;;4.95;100.00
2188;BME280;1100;52.014;8.540;2024-03-23T04:31:40;99272.19;;;4.94;100.00
2188;BME280;1100;52.014;8.540;2024-03-23T04:34:05;99274.09;;;4.97;100.00
2188;BME280;1100;52.014;8.540;2024-03-23T04:36:31;99272.59;;;4.92;100.00
2188;BME280;1100;52.014;8.540;2024-03-23T04:38:57;99279.38;;;4.88;100.00
2188;BME280;1100;52.014;8.540;2024-03-23T04:41:23;99272.66;;;4.89;100.00
2188;BME280;1100;52.014;8.540;2024-03-23T04:43:48;99279.38;;;4.88;100.00
2188;BME280;1100;52.014;8.540;2024-03-23T04:46:13;99282.13;;;4.88;100.00
2188;BME280;1100;52.014;8.540;2024-03-23T04:48:38;99288.34;;;4.92;100.00
2188;BME280;1100;52.014;8.540;2024-03-23T04:51:04;99285.56;;;4.92;100.00
2188;BME280;1100;52.014;8.540;2024-03-23T04:53:29;99279.28;;;4.91;100.00
2188;BME280;1100;52.014;8.540;2024-03-23T04:55:58;99281.28;;;4.91;100.00
2188;BME280;1100;52.014;8.540;2024-03-23T04:58:24;99274.63;;;4.88;100.00
2188;BME280;1100;52.014;8.540;2024-03-23T05:00:57;99266.00;;;4.86;100.00
2188;BME280;1100;52.014;8.540;2024-03-23T05:03:25;99260.56;;;4.82;100.00
2188;BME280;1100;52.014;8.540;2024-03-23T05:05:50;99261.41;;;4.79;100.00
2188;BME280;1100;52.014;8.540;2024-03-23T05:08:16;99252.34;;;4.79;100.00
2188;BME280;1100;52.014;8.540;2024-03-23T05:10:45;99236.25;;;4.77;100.00
2188;BME280;1100;52.014;8.540;2024-03-23T05:13:11;99230.75;;;4.77;100.00
2188;BME280;1100;52.014;8.540;2024-03-23T05:15:37;99233.06;;;4.79;100.00
2188;BME280;1100;52.014;8.540;2024-03-23T05:18:02;99237.47;;;4.76;100.00
2188;BME280;1100;52.014;8.540;2024-03-23T05:20:28;99239.38;;;4.79;100.00
2188;BME280;1100;52.014;8.540;2024-03-23T05:22:54;99248.00;;;4.81;100.00
2188;BME280;1100;52.014;8.540;2024-03-23T05:25:20;99244.88;;;4.79;100.00
2188;BME280;1100;52.014;8.540;2024-03-23T05:27:45;99235.00;;;4.82;100.00
2188;BME280;1100;52.014;8.540;2024-03-23T05:30:11;99236.91;;;4.85;100.00
2188;BME280;1100;52.014;8.540;2024-03-23T05:32:36;99245.53;;;4.87;100.00
2188;BME280;1100;52.014;8.540;2024-03-23T05:35:03;99241.94;;;4.90;100.00
2188;BME280;1100;52.014;8.540;2024-03-23T05:37:29;99256.78;;;4.96;100.00
2188;BME280;1100;52.014;8.540;2024-03-23T05:39:56;99257.19;;;4.95;100.00
2188;BME280;1100;52.014;8.540;2024-03-23T05:42:21;99261.06;;;4.97;100.00
2188;BME280;1100;52.014;8.540;2024-03-23T05:44:47;99256.34;;;4.98;100.00
2188;BME280;1100;52.014;8.540;2024-03-23T05:47:12;99259.09;;;4.98;100.00
2188;BME280;1100;52.014;8.540;2024-03-23T05:49:39;99255.16;;;4.99;100.00
2188;BME280;1100;52.014;8.540;2024-03-23T05:52:06;99247.72;;;4.96;100.00
2188;BME280;1100;52.014;8.540;2024-03-23T05:54:32;99247.81;;;4.92;100.00
2188;BME280;1100;52.014;8.540;2024-03-23T05:56:57;99243.47;;;4.91;100.00
2188;BME280;1100;52.014;8.540;2024-03-23T05:59:22;99254.81;;;4.97;100.00
2188;BME280;1100;52.014;8.540;2024-03-23T06:01:48;99253.03;;;5.07;100.00
2188;BME280;1100;52.014;8.540;2024-03-23T06:04:13;99259.34;;;5.07;100.00
2188;BME280;1100;52.014;8.540;2024-03-23T06:06:41;99259.34;;;5.07;100.00
2188;BME280;1100;52.014;8.540;2024-03-23T06:09:07;99262.09;;;5.07;100.00
2188;BME280;1100;52.014;8.540;2024-03-23T06:11:32;99254.09;;;5.13;100.00
2188;BME280;1100;52.014;8.540;2024-03-23T06:13:57;99259.41;;;5.24;100.00
2188;BME280;1100;52.014;8.540;2024-03-23T06:16:22;99267.69;;;5.24;100.00
2188;BME280;1100;52.014;8.540;2024-03-23T06:18:52;99262.75;;;5.35;100.00
2188;BME280;1100;52.014;8.540;2024-03-23T06:21:17;99262.63;;;5.43;100.00
2188;BME280;1100;52.014;8.540;2024-03-23T06:23:43;99262.09;;;5.28;100.00
2188;BME280;1100;52.014;8.540;2024-03-23T06:26:13;99257.38;;;5.28;100.00
2188;BME280;1100;52.014;8.540;2024-03-23T06:28:38;99262.81;;;5.32;100.00
2188;BME280;1100;52.014;8.540;2024-03-23T06:31:09;99271.81;;;5.36;100.00
2188;BME280;1100;52.014;8.540;2024-03-23T06:33:34;99271.38;;;5.38;100.00
2188;BME280;1100;52.014;8.540;2024-03-23T06:35:59;99269.69;;;5.44;100.00
2188;BME280;1100;52.014;8.540;2024-03-23T06:38:25;99260.09;;;5.52;100.00
2188;BME280;1100;52.014;8.540;2024-03-23T06:40:50;99265.50;;;5.56;100.00
2188;BME280;1100;52.014;8.540;2024-03-23T06:43:17;99253.19;;;5.60;100.00
2188;BME280;1100;52.014;8.540;2024-03-23T06:45:52;99257.53;;;5.61;100.00
2188;BME280;1100;52.014;8.540;2024-03-23T06:48:17;99265.28;;;5.67;100.00
2188;BME280;1100;52.014;8.540;2024-03-23T06:50:42;99261.34;;;5.68;100.00
2188;BME280;1100;52.014;8.540;2024-03-23T06:53:08;99266.44;;;5.69;100.00
2188;BME280;1100;52.014;8.540;2024-03-23T06:55:33;99260.50;;;5.71;100.00
2188;BME280;1100;52.014;8.540;2024-03-23T06:57:58;99260.06;;;5.72;100.00
2188;BME280;1100;52.014;8.540;2024-03-23T07:00:24;99256.88;;;5.74;100.00
2188;BME280;1100;52.014;8.540;2024-03-23T07:02:50;99261.44;;;5.81;100.00
2188;BME280;1100;52.014;8.540;2024-03-23T07:05:15;99262.22;;;5.81;100.00
2188;BME280;1100;52.014;8.540;2024-03-23T07:07:40;99266.47;;;5.86;100.00
2188;BME280;1100;52.014;8.540;2024-03-23T07:10:06;99272.84;;;5.83;100.00
2188;BME280;1100;52.014;8.540;2024-03-23T07:12:32;99272.78;;;5.86;100.00
2188;BME280;1100;52.014;8.540;2024-03-23T07:14:57;99265.69;;;5.85;100.00
2188;BME280;1100;52.014;8.540;2024-03-23T07:17:22;99269.66;;;5.84;100.00
2188;BME280;1100;52.014;8.540;2024-03-23T07:19:47;99272.00;;;5.86;100.00
2188;BME280;1100;52.014;8.540;2024-03-23T07:22:13;99278.97;;;5.91;100.00
2188;BME280;1100;52.014;8.540;2024-03-23T07:24:39;99276.59;;;5.93;100.00
2188;BME280;1100;52.014;8.540;2024-03-23T07:27:05;99269.69;;;6.01;100.00
2188;BME280;1100;52.014;8.540;2024-03-23T07:29:30;99265.84;;;6.15;100.00
2188;BME280;1100;52.014;8.540;2024-03-23T07:31:55;99263.81;;;6.19;100.00
2188;BME280;1100;52.014;8.540;2024-03-23T07:34:20;99271.47;;;6.12;100.00
2188;BME280;1100;52.014;8.540;2024-03-23T07:36:46;99269.66;;;6.05;100.00
2188;BME280;1100;52.014;8.540;2024-03-23T07:39:11;99266.94;;;6.01;100.00
2188;BME280;1100;52.014;8.540;2024-03-23T07:41:37;99266.91;;;6.21;100.00
2188;BME280;1100;52.014;8.540;2024-03-23T07:44:02;99278.75;;;6.55;100.00
2188;BME280;1100;52.014;8.540;2024-03-23T07:46:27;99274.78;;;6.56;100.00
2188;BME280;1100;52.014;8.540;2024-03-23T07:48:53;99277.97;;;6.55;100.00
2188;BME280;1100;52.014;8.540;2024-03-23T07:51:21;99273.81;;;6.46;100.00
2188;BME280;1100;52.014;8.540;2024-03-23T07:53:47;99270.81;;;6.41;100.00
2188;BME280;1100;52.014;8.540;2024-03-23T07:56:14;99267.38;;;6.37;100.00
2188;BME280;1100;52.014;8.540;2024-03-23T07:58:43;99274.75;;;6.23;100.00
2188;BME280;1100;52.014;8.540;2024-03-23T08:01:11;99270.81;;;6.24;100.00
2188;BME280;1100;52.014;8.540;2024-03-23T08:03:37;99278.22;;;6.27;100.00
2188;BME280;1100;52.014;8.540;2024-03-23T08:06:12;99266.50;;;6.56;100.00
2188;BME280;1100;52.014;8.540;2024-03-23T08:08:39;99276.84;;;6.85;100.00
2188;BME280;1100;52.014;8.540;2024-03-23T08:11:05;99280.44;;;6.99;100.00
2188;BME280;1100;52.014;8.540;2024-03-23T08:13:30;99279.34;;;6.96;100.00
2188;BME280;1100;52.014;8.540;2024-03-23T08:16:00;99272.69;;;6.94;100.00
2188;BME280;1100;52.014;8.540;2024-03-23T08:18:26;99277.00;;;6.95;100.00
2188;BME280;1100;52.014;8.540;2024-03-23T08:21:02;99277.84;;;7.08;100.00
2188;BME280;1100;52.014;8.540;2024-03-23T08:23:29;99270.94;;;7.00;100.00
2188;BME280;1100;52.014;8.540;2024-03-23T08:25:58;99276.19;;;7.11;100.00
2188;BME280;1100;52.014;8.540;2024-03-23T08:28:24;99267.00;;;7.31;100.00
2188;BME280;1100;52.014;8.540;2024-03-23T08:30:49;99271.78;;;7.43;100.00
2188;BME280;1100;52.014;8.540;2024-03-23T08:33:15;99272.09;;;7.88;100.00
2188;BME280;1100;52.014;8.540;2024-03-23T08:35:41;99266.38;;;8.21;100.00
2188;BME280;1100;52.014;8.540;2024-03-23T08:38:06;99272.91;;;8.15;100.00
2188;BME280;1100;52.014;8.540;2024-03-23T08:40:32;99263.47;;;7.73;100.00
2188;BME280;1100;52.014;8.540;2024-03-23T08:42:57;99266.09;;;7.77;100.00
2188;BME280;1100;52.014;8.540;2024-03-23T08:45:24;99261.94;;;8.37;100.00
2188;BME280;1100;52.014;8.540;2024-03-23T08:47:50;99265.59;;;8.47;100.00
2188;BME280;1100;52.014;8.540;2024-03-23T08:50:15;99266.59;;;8.40;100.00
2188;BME280;1100;52.014;8.540;2024-03-23T08:52:41;99256.63;;;8.17;100.00
2188;BME280;1100;52.014;8.540;2024-03-23T08:55:06;99263.13;;;7.84;100.00
2188;BME280;1100;52.014;8.540;2024-03-23T08:57:32;99265.22;;;7.67;100.00
2188;BME280;1100;52.014;8.540;2024-03-23T08:59:57;99270.88;;;7.89;100.00
2188;BME280;1100;52.014;8.540;2024-03-23T09:02:23;99269.13;;;7.82;100.00
2188;BME280;1100;52.014;8.540;2024-03-23T09:04:48;99282.59;;;7.80;100.00
2188;BME280;1100;52.014;8.540;2024-03-23T09:07:13;99266.97;;;7.60;100.00
2188;BME280;1100;52.014;8.540;2024-03-23T09:09:39;99266.50;;;7.49;100.00
2188;BME280;1100;52.014;8.540;2024-03-23T09:12:05;99274.13;;;7.45;100.00
2188;BME280;1100;52.014;8.540;2024-03-23T09:14:31;99250.91;;;7.55;100.00
2188;BME280;1100;52.014;8.540;2024-03-23T09:16:56;99262.81;;;7.82;100.00
2188;BME280;1100;52.014;8.540;2024-03-23T09:19:21;99268.13;;;7.76;100.00
2188;BME280;1100;52.014;8.540;2024-03-23T09:21:46;99263.38;;;7.47;100.00
2188;BME280;1100;52.014;8.540;2024-03-23T09:24:12;99272.84;;;7.33;100.00
2188;BME280;1100;52.014;8.540;2024-03-23T09:26:37;99270.94;;;7.17;100.00
2188;BME280;1100;52.014;8.540;2024-03-23T09:29:02;99258.94;;;7.07;100.00
2188;BME280;1100;52.014;8.540;2024-03-23T09:31:29;99260.75;;;6.97;100.00
2188;BME280;1100;52.014;8.540;2024-03-23T09:33:54;99271.06;;;6.96;100.00
2188;BME280;1100;52.014;8.540;2024-03-23T09:36:20;99274.59;;;6.80;100.00
2188;BME280;1100;52.014;8.540;2024-03-23T09:38:45;99270.38;;;6.42;100.00
2188;BME280;1100;52.014;8.540;2024-03-23T09:41:11;99275.91;;;6.26;100.00
2188;BME280;1100;52.014;8.540;2024-03-23T09:43:37;99271.25;;;6.22;100.00
2188;BME280;1100;52.014;8.540;2024-03-23T09:46:03;99267.94;;;6.11;100.00
2188;BME280;1100;52.014;8.540;2024-03-23T09:48:28;99261.19;;;6.12;100.00
2188;BME280;1100;52.014;8.540;2024-03-23T09:50:53;99271.69;;;6.71;100.00
2188;BME280;1100;52.014;8.540;2024-03-23T09:53:19;99268.47;;;8.30;100.00
2188;BME280;1100;52.014;8.540;2024-03-23T09:55:45;99262.31;;;9.45;100.00
2188;BME280;1100;52.014;8.540;2024-03-23T09:58:15;99251.66;;;9.98;100.00
2188;BME280;1100;52.014;8.540;2024-03-23T10:00:41;99259.22;;;9.43;100.00
2188;BME280;1100;52.014;8.540;2024-03-23T10:03:07;99249.53;;;9.48;100.00
2188;BME280;1100;52.014;8.540;2024-03-23T10:05:33;99249.94;;;8.66;100.00
2188;BME280;1100;52.014;8.540;2024-03-23T10:10:39;99246.69;;;8.06;100.00
2188;BME280;1100;52.014;8.540;2024-03-23T10:13:05;99251.28;;;7.83;100.00
2188;BME280;1100;52.014;8.540;2024-03-23T10:15:33;99246.16;;;7.56;100.00
2188;BME280;1100;52.014;8.540;2024-03-23T10:21:08;99239.00;;;8.37;100.00
2188;BME280;1100;52.014;8.540;2024-03-23T10:23:37;99240.13;;;8.13;100.00
2188;BME280;1100;52.014;8.540;2024-03-23T10:26:22;99226.38;;;7.83;100.00
2188;BME280;1100;52.014;8.540;2024-03-23T10:28:55;99214.00;;;7.88;100.00
2188;BME280;1100;52.014;8.540;2024-03-23T10:31:29;99236.56;;;9.00;100.00
2188;BME280;1100;52.014;8.540;2024-03-23T10:33:54;99230.38;;;9.63;100.00
2188;BME280;1100;52.014;8.540;2024-03-23T10:36:21;99237.44;;;9.87;100.00
2188;BME280;1100;52.014;8.540;2024-03-23T10:38:47;99236.94;;;9.79;100.00
2188;BME280;1100;52.014;8.540;2024-03-23T10:41:12;99228.78;;;10.26;100.00
2188;BME280;1100;52.014;8.540;2024-03-23T10:43:38;99237.25;;;10.22;100.00
2188;BME280;1100;52.014;8.540;2024-03-23T10:46:05;99239.50;;;9.73;100.00
2188;BME280;1100;52.014;8.540;2024-03-23T10:48:33;99234.91;;;8.90;100.00
2188;BME280;1100;52.014;8.540;2024-03-23T10:50:58;99226.22;;;8.52;100.00
2188;BME280;1100;52.014;8.540;2024-03-23T10:53:28;99233.34;;;8.40;100.00
2188;BME280;1100;52.014;8.540;2024-03-23T10:55:55;99243.38;;;9.08;100.00
2188;BME280;1100;52.014;8.540;2024-03-23T10:58:27;99235.22;;;10.13;100.00
2188;BME280;1100;52.014;8.540;2024-03-23T11:00:53;99236.03;;;10.92;100.00
2188;BME280;1100;52.014;8.540;2024-03-23T11:03:40;99242.00;;;11.47;100.00
2188;BME280;1100;52.014;8.540;2024-03-23T11:06:09;99233.63;;;11.66;99.73
2188;BME280;1100;52.014;8.540;2024-03-23T11:08:39;99236.34;;;11.84;96.62
2188;BME280;1100;52.014;8.540;2024-03-23T11:11:24;99224.22;;;12.06;95.50
2188;BME280;1100;52.014;8.540;2024-03-23T11:13:51;99227.78;;;12.07;94.27
2188;BME280;1100;52.014;8.540;2024-03-23T11:16:22;99224.03;;;11.76;92.14
2188;BME280;1100;52.014;8.540;2024-03-23T11:18:48;99234.22;;;11.79;95.64
2188;BME280;1100;52.014;8.540;2024-03-23T11:21:51;99234.63;;;11.34;93.49
2188;BME280;1100;52.014;8.540;2024-03-23T11:24:18;99227.06;;;11.07;94.29
2188;BME280;1100;52.014;8.540;2024-03-23T11:26:44;99231.25;;;10.83;91.80
2188;BME280;1100;52.014;8.540;2024-03-23T11:29:10;99233.75;;;10.40;93.46
2188;BME280;1100;52.014;8.540;2024-03-23T11:31:37;99251.38;;;9.74;93.36
2188;BME280;1100;52.014;8.540;2024-03-23T11:34:05;99229.81;;;9.24;94.30
2188;BME280;1100;52.014;8.540;2024-03-23T11:36:30;99234.44;;;8.69;93.63
2188;BME280;1100;52.014;8.540;2024-03-23T11:38:55;99227.16;;;8.23;93.91
2188;BME280;1100;52.014;8.540;2024-03-23T11:41:21;99236.13;;;7.88;94.56
2188;BME280;1100;52.014;8.540;2024-03-23T11:43:46;99229.88;;;7.58;94.71
2188;BME280;1100;52.014;8.540;2024-03-23T11:46:11;99223.34;;;7.39;95.52
2188;BME280;1100;52.014;8.540;2024-03-23T11:48:49;99232.81;;;7.25;95.87
2188;BME280;1100;52.014;8.540;2024-03-23T11:51:16;99229.69;;;7.22;96.58
2188;BME280;1100;52.014;8.540;2024-03-23T11:53:42;99228.47;;;7.23;96.56
2188;BME280;1100;52.014;8.540;2024-03-23T11:56:07;99222.84;;;7.27;96.81
2188;BME280;1100;52.014;8.540;2024-03-23T11:58:34;99224.84;;;8.21;96.55
2188;BME280;1100;52.014;8.540;2024-03-23T12:01:01;99221.41;;;8.04;96.59
2188;BME280;1100;52.014;8.540;2024-03-23T12:03:28;99211.88;;;7.92;97.46
2188;BME280;1100;52.014;8.540;2024-03-23T12:05:55;99216.00;;;7.75;96.59
2188;BME280;1100;52.014;8.540;2024-03-23T12:10:48;99209.34;;;7.85;96.83
2188;BME280;1100;52.014;8.540;2024-03-23T12:13:15;99213.66;;;7.99;96.77
2188;BME280;1100;52.014;8.540;2024-03-23T12:15:42;99218.66;;;8.04;97.76
2188;BME280;1100;52.014;8.540;2024-03-23T12:18:09;99200.94;;;8.02;98.13
2188;BME280;1100;52.014;8.540;2024-03-23T12:20:35;99206.47;;;8.15;98.19
2188;BME280;1100;52.014;8.540;2024-03-23T12:23:08;99198.69;;;8.84;97.63
2188;BME280;1100;52.014;8.540;2024-03-23T12:25:38;99202.41;;;8.68;97.84
2188;BME280;1100;52.014;8.540;2024-03-23T12:28:04;99190.03;;;8.46;98.19
2188;BME280;1100;52.014;8.540;2024-03-23T12:30:40;99194.59;;;8.27;97.40
2188;BME280;1100;52.014;8.540;2024-03-23T12:33:05;99231.06;;;8.13;96.55
2188;BME280;1100;52.014;8.540;2024-03-23T12:35:31;99213.47;;;8.06;95.21
2188;BME280;1100;52.014;8.540;2024-03-23T12:37:57;99218.97;;;7.80;92.03
2188;BME280;1100;52.014;8.540;2024-03-23T12:40:22;99236.25;;;8.23;90.71
2188;BME280;1100;52.014;8.540;2024-03-23T12:42:47;99225.59;;;8.61;90.64
2188;BME280;1100;52.014;8.540;2024-03-23T12:45:13;99230.44;;;8.70;90.90
2188;BME280;1100;52.014;8.540;2024-03-23T12:47:38;99221.97;;;8.25;88.24
2188;BME280;1100;52.014;8.540;2024-03-23T12:50:04;99241.22;;;7.90;87.42
2188;BME280;1100;52.014;8.540;2024-03-23T12:52:30;99234.47;;;8.30;86.35
2188;BME280;1100;52.014;8.540;2024-03-23T12:54:56;99231.09;;;8.74;85.44
2188;BME280;1100;52.014;8.540;2024-03-23T12:57:23;99225.53;;;9.09;86.53
2188;BME280;1100;52.014;8.540;2024-03-23T12:59:49;99218.31;;;9.12;86.60
2188;BME280;1100;52.014;8.540;2024-03-23T13:02:22;99231.50;;;9.75;87.20
2188;BME280;1100;52.014;8.540;2024-03-23T13:04:52;99235.38;;;9.78;83.60
2188;BME280;1100;52.014;8.540;2024-03-23T13:07:18;99231.56;;;9.84;84.41
2188;BME280;1100;52.014;8.540;2024-03-23T13:09:44;99244.06;;;10.21;83.28
2188;BME280;1100;52.014;8.540;2024-03-23T13:12:09;99243.47;;;10.35;81.46
2188;BME280;1100;52.014;8.540;2024-03-23T13:14:35;99235.56;;;10.94;83.28
2188;BME280;1100;52.014;8.540;2024-03-23T13:17:01;99241.13;;;10.84;79.40
2188;BME280;1100;52.014;8.540;2024-03-23T13:19:28;99245.28;;;10.80;80.86
2188;BME280;1100;52.014;8.540;2024-03-23T13:21:56;99233.72;;;11.09;80.70
2188;BME280;1100;52.014;8.540;2024-03-23T13:24:22;99240.50;;;10.90;80.63
2188;BME280;1100;52.014;8.540;2024-03-23T13:26:49;99236.66;;;10.27;81.14
2188;BME280;1100;52.014;8.540;2024-03-23T13:29:14;99240.50;;;9.57;80.60
2188;BME280;1100;52.014;8.540;2024-03-23T13:31:40;99242.63;;;8.72;80.99
2188;BME280;1100;52.014;8.540;2024-03-23T13:34:05;99265.94;;;8.23;82.40
2188;BME280;1100;52.014;8.540;2024-03-23T13:36:30;99267.78;;;7.87;82.55
2188;BME280;1100;52.014;8.540;2024-03-23T13:38:56;99261.19;;;7.55;83.24
2188;BME280;1100;52.014;8.540;2024-03-23T13:41:21;99269.78;;;7.44;84.22
2188;BME280;1100;52.014;8.540;2024-03-23T13:43:46;99271.25;;;7.19;84.43
2188;BME280;1100;52.014;8.540;2024-03-23T13:46:11;99269.41;;;6.99;84.74
2188;BME280;1100;52.014;8.540;2024-03-23T13:48:37;99267.88;;;6.65;85.53
2188;BME280;1100;52.014;8.540;2024-03-23T13:51:03;99259.94;;;6.33;85.65
2188;BME280;1100;52.014;8.540;2024-03-23T13:53:29;99254.50;;;6.30;86.98
2188;BME280;1100;52.014;8.540;2024-03-23T13:55:55;99243.59;;;7.19;86.58
2188;BME280;1100;52.014;8.540;2024-03-23T13:58:20;99243.94;;;8.81;87.39
2188;BME280;1100;52.014;8.540;2024-03-23T14:00:46;99244.59;;;10.06;87.06
2188;BME280;1100;52.014;8.540;2024-03-23T14:03:12;99235.88;;;11.05;87.60
2188;BME280;1100;52.014;8.540;2024-03-23T14:05:38;99233.41;;;11.26;84.16
2188;BME280;1100;52.014;8.540;2024-03-23T14:08:07;99231.94;;;11.68;84.46
2188;BME280;1100;52.014;8.540;2024-03-23T14:10:33;99231.09;;;11.87;81.73
2188;BME280;1100;52.014;8.540;2024-03-23T14:12:59;99233.53;;;11.94;83.83
2188;BME280;1100;52.014;8.540;2024-03-23T14:15:27;99219.72;;;12.18;80.78
2188;BME280;1100;52.014;8.540;2024-03-23T14:17:52;99200.03;;;11.17;83.75
2188;BME280;1100;52.014;8.540;2024-03-23T14:20:19;99201.47;;;10.24;83.51